Terminal Aerodrome Forecast
Issued by NWS

Home | Current Version | Previous Version | Text Only | Print | Product List | Glossary On
Versions: 1 2 3 4 5 6 7 8 9 10 11 12 13 14 15 16
000
FTUS44 KLIX 302300 RRA
TAFMCB
TAF
KMCB 302343Z 3100/3124 18006KT P6SM -RA SCT008 BKN060 BKN090
     FM310130 17008KT P6SM OVC035
     FM311200 VRB03KT P6SM BKN150
     FM311700 18007KT P6SM BKN250=

USA.gov is the U.S. government's official web portal to all federal, state and local government web resources and services.